Weather History for Stafford, VA

Change the Weather History Date:

Monday, April 29, 2013

  Actual Average (KNYG) Record (KNYG)
Temperature  
Mean Temperature 57 °F -  
Max Temperature 61 °F 68 °F 78 °F (2003)
Min Temperature 53 °F 48 °F 39 °F (2001)
Degree Days  
Heating Degree Days 8    
Growing Degree Days 7 (Base 50)    
Moisture  
Dew Point 56 °F    
Average Humidity 98    
Maximum Humidity 100    
Minimum Humidity 86    
Precipitation  
Precipitation 0.46 in - - ()
Sea Level Pressure  
Sea Level Pressure 30.12 in    
Wind  
Wind Speed 4 mph (East)    
Max Wind Speed 14 mph    
Max Gust Speed 18 mph    
Visibility 5 miles    
Events Rain    
Averages and records for this station are not official NWS values.
T = Trace of Precipitation, MM = Missing Value Source: NWS Daily Summary

Daily Weather History Graph

Daily Weather History Graph

Search for Another Location

Airport:

Trip Planner

Search our weather history database for the weather conditions in past years. The results will help you decide how hot, cold, wet, or windy it might be!

Date:

Astronomy

Apr. 29, 2013 Rise Set
Actual Time 6:15 AM EDT 7:59 PM EDT
Civil Twilight 5:46 AM EDT 8:28 PM EDT
Nautical Twilight 5:12 AM EDT 9:02 PM EDT
Astronomical Twilight 4:35 AM EDT 9:39 PM EDT
Moon No Moon Rise 9:34 AM EDT (4/29)
Length of Visible Light 14h 41m
Length of Day
13h 44m
Waning Gibbous, 80% of the Moon is Illuminated
Apr 29
Waning Gibbous
May 2
Last Quarter
May 9
New
May 18
First Quarter
May 25
Full

Hourly Weather History & Observations

Time (EDT) Temp. Dew Point Humidity Pressure Visibility Wind Dir Wind Speed Gust Speed Precip Events Conditions
12:15 AM 55.4 °F 51.3 °F 86% 30.20 in 7.0 mi SSE 4.6 mph - N/A   Heavy Drizzle
12:35 AM 54.5 °F 51.8 °F 91% 30.21 in 7.0 mi SSE 4.6 mph - N/A   Overcast
12:55 AM 54.5 °F 52.5 °F 93% 30.20 in 10.0 mi SSE 5.8 mph - N/A   Overcast
1:15 AM 54.1 °F 52.7 °F 95% 30.20 in 7.0 mi SSE 4.6 mph - N/A Rain Rain
1:35 AM 54.0 °F 53.4 °F 98% 30.20 in 4.0 mi Calm Calm - N/A Rain Light Rain
1:55 AM 53.8 °F 53.4 °F 99% 30.18 in 3.0 mi ESE 5.8 mph - 0.02 in Rain Rain
2:15 AM 53.6 °F 53.2 °F 99% 30.18 in 5.0 mi SSE 3.5 mph - 0.01 in   Drizzle
2:35 AM 53.6 °F 53.2 °F 99% 30.16 in 4.0 mi SE 3.5 mph - 0.01 in Rain Rain
2:55 AM 53.6 °F 53.6 °F 100% 30.15 in 5.0 mi ESE 4.6 mph - 0.02 in   Drizzle
3:15 AM 53.8 °F 53.6 °F 99% 30.15 in 5.0 mi SE 3.5 mph - N/A   Drizzle
3:35 AM 53.6 °F 53.2 °F 99% 30.14 in 5.0 mi SE 4.6 mph - 0.01 in Rain Light Rain
3:55 AM 53.8 °F 53.4 °F 99% 30.14 in 5.0 mi Calm Calm - 0.03 in Rain Rain
4:15 AM 54.0 °F 53.6 °F 99% 30.14 in 5.0 mi Calm Calm - 0.02 in Rain Rain
4:35 AM 54.1 °F 54.0 °F 99% 30.14 in 4.0 mi Calm Calm - 0.05 in Rain Rain
4:55 AM 54.1 °F 54.0 °F 99% 30.14 in 5.0 mi Calm Calm - 0.07 in Rain Light Rain
5:15 AM 54.1 °F 54.0 °F 99% 30.13 in 5.0 mi Calm Calm - 0.01 in Rain Rain
5:35 AM 54.1 °F 54.0 °F 99% 30.13 in 5.0 mi East 3.5 mph - 0.03 in Rain Rain
5:55 AM 54.3 °F 54.0 °F 99% 30.12 in 5.0 mi East 4.6 mph - 0.05 in Rain Rain
6:15 AM 54.1 °F 54.0 °F 99% 30.13 in 5.0 mi East 4.6 mph - 0.02 in Rain Rain
6:35 AM 54.3 °F 54.1 °F 99% 30.13 in 5.0 mi East 3.5 mph - 0.03 in Rain Light Rain
6:55 AM 54.5 °F 54.1 °F 99% 30.13 in 5.0 mi East 3.5 mph - 0.05 in Rain Rain
7:15 AM 54.7 °F 54.5 °F 99% 30.14 in 5.0 mi Calm Calm - 0.02 in Rain Rain
7:35 AM 54.9 °F 54.5 °F 99% 30.14 in 5.0 mi East 3.5 mph - 0.04 in Rain Rain
7:55 AM 55.0 °F 54.7 °F 99% 30.14 in 5.0 mi ESE 3.5 mph - 0.05 in Rain Rain
8:15 AM 55.4 °F 55.2 °F 99% 30.13 in 5.0 mi Calm Calm - 0.01 in Rain Rain
8:35 AM 55.8 °F 55.6 °F 99% 30.13 in 5.0 mi ENE 4.6 mph - 0.04 in Rain Rain
8:55 AM 56.3 °F 55.9 °F 99% 30.13 in 5.0 mi East 3.5 mph - 0.06 in Rain Rain
9:15 AM 56.8 °F 56.5 °F 99% 30.13 in 5.0 mi East 4.6 mph - 0.02 in Rain Light Rain
9:35 AM 57.2 °F 57.0 °F 99% 30.12 in 5.0 mi East 3.5 mph - 0.03 in Rain Rain
9:55 AM 57.6 °F 57.2 °F 99% 30.12 in 5.0 mi Calm Calm - 0.04 in Rain Rain
10:15 AM 58.1 °F 57.7 °F 99% 30.12 in 5.0 mi Calm Calm - 0.01 in Rain Rain
10:35 AM 58.5 °F 58.1 °F 99% 30.12 in 5.0 mi Calm Calm - 0.02 in Rain Light Rain
10:55 AM 59.2 °F 58.6 °F 98% 30.11 in 5.0 mi SE 4.6 mph - 0.03 in Rain Light Rain
11:15 AM 60.1 °F 59.2 °F 97% 30.11 in 7.0 mi ESE 5.8 mph - N/A   Drizzle
11:35 AM 59.7 °F 58.3 °F 95% 30.12 in 10.0 mi SE 5.8 mph - N/A Rain Rain
11:55 AM 60.1 °F 58.6 °F 95% 30.12 in 10.0 mi ESE 8.1 mph - 0.01 in   Drizzle
12:15 PM 59.9 °F 58.8 °F 96% 30.12 in 7.0 mi ESE 6.9 mph - N/A   Light Drizzle
12:35 PM 59.7 °F 58.8 °F 97% 30.11 in 2.5 mi ESE 8.1 mph - 0.01 in   Drizzle
12:55 PM 59.5 °F 59.0 °F 98% 30.11 in 2.0 mi ESE 9.2 mph - 0.02 in   Drizzle
1:15 PM 59.7 °F 59.2 °F 98% 30.10 in 2.0 mi ESE 5.8 mph - 0.01 in   Light Drizzle
1:35 PM 59.9 °F 59.0 °F 97% 30.10 in 3.0 mi East 10.4 mph 16.1 mph 0.01 in   Overcast
1:55 PM 59.9 °F 58.6 °F 96% 30.10 in 5.0 mi ESE 6.9 mph - 0.01 in   Overcast
2:15 PM 59.9 °F 58.6 °F 96% 30.10 in 3.0 mi ESE 6.9 mph - N/A   Overcast
2:35 PM 60.1 °F 59.2 °F 97% 30.09 in 2.5 mi ESE 5.8 mph - N/A   Overcast
2:55 PM 60.4 °F 59.4 °F 96% 30.09 in 3.0 mi ESE 5.8 mph - N/A   Overcast
3:15 PM 60.3 °F 59.2 °F 96% 30.08 in 4.0 mi ESE 9.2 mph - N/A   Overcast
3:35 PM 61.0 °F 59.7 °F 96% 30.08 in 4.0 mi East 5.8 mph - N/A   Overcast
3:55 PM 60.6 °F 59.7 °F 97% 30.08 in 4.0 mi East 6.9 mph - N/A   Overcast
4:15 PM 60.6 °F 59.5 °F 96% 30.07 in 3.0 mi East 9.2 mph - N/A   Overcast
4:35 PM 60.1 °F 59.2 °F 97% 30.07 in 2.5 mi East 10.4 mph - N/A   Overcast
4:55 PM 58.8 °F 58.1 °F 97% 30.07 in 1.8 mi East 13.8 mph 18.4 mph N/A   Overcast
5:15 PM 58.1 °F 57.6 °F 98% 30.07 in 1.5 mi East 13.8 mph 17.3 mph N/A   Overcast
5:35 PM 57.7 °F 57.2 °F 98% 30.07 in 2.5 mi East 12.7 mph 17.3 mph N/A   Overcast
5:55 PM 57.7 °F 57.2 °F 98% 30.07 in 2.0 mi East 10.4 mph 16.1 mph N/A   Overcast
6:15 PM 57.6 °F 57.2 °F 99% 30.07 in 3.0 mi East 8.1 mph 16.1 mph N/A   Overcast
6:35 PM 57.6 °F 57.2 °F 99% 30.08 in 2.5 mi East 5.8 mph - N/A   Overcast
6:55 PM 57.6 °F 57.2 °F 99% 30.08 in 5.0 mi East 5.8 mph - N/A   Overcast
7:15 PM 57.2 °F 56.7 °F 98% 30.09 in 10.0 mi East 8.1 mph - N/A   Overcast
7:35 PM 57.2 °F 56.5 °F 97% 30.09 in 10.0 mi ENE 6.9 mph - N/A   Overcast
7:55 PM 57.0 °F 56.3 °F 97% 30.09 in 10.0 mi East 4.6 mph - N/A   Overcast
8:15 PM 57.0 °F 56.3 °F 97% 30.10 in 10.0 mi ENE 3.5 mph - N/A   Overcast
8:35 PM 56.7 °F 56.3 °F 99% 30.10 in 5.0 mi ENE 4.6 mph - N/A   Overcast
8:55 PM 56.5 °F 56.3 °F 99% 30.11 in 5.0 mi ENE 5.8 mph - N/A   Overcast
9:15 PM 56.3 °F 56.3 °F 100% 30.11 in 7.0 mi NE 4.6 mph - N/A   Overcast
9:35 PM 56.5 °F 56.3 °F 99% 30.12 in 7.0 mi ENE 4.6 mph - N/A   Overcast
9:55 PM 56.3 °F 56.3 °F 100% 30.12 in 7.0 mi NE 4.6 mph - N/A   Overcast
10:15 PM 56.3 °F 56.3 °F 100% 30.13 in 7.0 mi NE 4.6 mph - N/A   Overcast
10:35 PM 56.3 °F 56.3 °F 100% 30.13 in 5.0 mi NNE 3.5 mph - N/A   Overcast
10:55 PM 56.3 °F 56.3 °F 100% 30.13 in 5.0 mi Calm Calm - N/A   Overcast
11:35 PM 56.3 °F 56.3 °F 100% 30.12 in 3.0 mi NE 5.8 mph - N/A   Overcast
11:55 PM 56.3 °F 56.3 °F 100% 30.13 in 3.0 mi Calm Calm - N/A   Overcast